Historyczne dane pomiarowe

Dodano dane terminowe – wersja testowa.

Dane z okresu 1951-2019

Wersja bazy: 1.34 [2019-03-16, lista zmian], aktualizacja planowana na 2019-04-15

Dane meteo z obszaru Polski uzyskane na podstawie danych udostępnionych przez Instytut Meteorologii i Gospodarki Wodnej – Państwowy Instytut Badawczy.

 

Wybierz Datę:    

       

TemperaturaWilgotnośćWiatrCiśnienieOpadyŚniegCzas trwania zjawisk
 Stacja t tx tn tng RH VA  wxwx mslp ppp RRR   cm mm wxwxwxwxwxwxwx
1994-08-14 15.0 19.0 11.7 10.6 65.3- 5.7 6.0---- 0.2------------
1994-08-13 16.3 21.7 14.6 13.6 89.8- 7.3 5.0---- 4.9------------
1994-08-12 16.7 19.3 15.5 14.7 91.3- 7.7 2.7---- 11.6------------
1994-08-11 18.2 24.2 15.5 11.7 84.3- 5.7 1.0---- 16.1------------
1994-08-10 19.6 25.3 16.1 16.1 78.0- 5.3 3.3---- 0.0------------
1994-08-09 20.8 27.8 16.0 15.8 84.3- 7.0 1.7---- 11.6------------
1994-08-08 21.0 25.9 16.7 15.7 79.3- 6.7 1.7---- 2.2------------
1994-08-07 25.3 31.5 17.3 14.4 44.8- 3.0 1.7---- 5.3------------
1994-08-06 26.5 31.8 18.0 13.9 33.0- 0.0 1.0---- 0.0------------
1994-08-05 25.0 30.9 17.4 13.6 54.0- 2.3 1.3---- 0.0------------
1994-08-04 22.1 30.1 17.0 14.9 74.5- 3.7 1.7---- 0.1------------
1994-08-03 26.9 32.3 20.0 16.2 49.3- 1.7 4.0---- 0.0------------
1994-08-02 26.4 34.3 18.0 17.2 46.5- 3.0 1.0---- 0.0------------
1994-08-01 27.0 33.7 19.0 17.8 50.5- 1.7 2.0---- 0.0------------
1994-07-31 27.5 34.7 19.1 15.3 43.0- 2.3 0.7---- 0.0------------
1994-07-30 27.5 33.3 20.2 17.0 44.5- 1.0 1.3---- 0.0------------
1994-07-29 27.6 34.0 20.3 15.1 33.8- 2.3 1.7---- 0.0------------
1994-07-28 26.6 32.8 19.1 16.2 40.0- 0.7 0.3---- 0.0------------
1994-07-27 26.3 32.4 18.1 16.1 42.3- 2.3 0.0---- 0.0------------
1994-07-26 24.6 31.8 17.0 13.6 43.8- 2.3 0.7---- 0.0------------
1994-07-25 24.7 31.5 16.2 12.6 41.5- 2.3 1.0---- 0.0------------
1994-07-24 23.4 29.6 14.4 11.1 48.8- 2.0 0.3---- 0.0------------
1994-07-23 21.9 28.8 14.4 9.4 56.0- 2.3 1.0---- 0.0------------
1994-07-22 20.2 26.4 12.4 7.7 58.5- 2.0 3.3---- 0.0------------
1994-07-21 20.2 26.3 12.2 7.2 53.5- 0.7 1.0---- 0.0------------
1994-07-20 17.1 23.9 9.1 5.3 61.0- 2.7 1.3---- 0.0------------
1994-07-19 18.6 24.8 12.4 10.2 67.5- 1.7 3.0---- 0.0------------
1994-07-18 20.3 24.3 16.5 15.2 80.3- 7.3 0.7---- 0.0------------
1994-07-17 21.5 28.0 16.2 13.1 68.5- 6.0 2.7---- 8.6------------
1994-07-16 25.0 31.1 15.9 11.1 47.3- 2.0 0.3---- 0.0------------
1994-07-15 23.5 29.0 15.8 12.6 52.8- 1.3 3.3---- 0.0------------
1994-07-14 23.9 29.9 17.5 12.3 60.5- 4.3 1.7---- 0.0------------
1994-07-13 23.5 29.8 15.7 11.9 49.8- 1.7 1.0---- 0.0------------
1994-07-12 21.7 28.9 14.4 7.7 61.5- 2.0 3.3---- 0.0------------
1994-07-11 17.7 20.2 12.1 8.0 81.0- 6.0 4.3---- 0.0------------
1994-07-10 15.5 23.3 9.6 6.3 88.8- 2.7 2.7---- 5.5------------
1994-07-09 14.7 19.6 11.6 8.3 83.5- 5.7 4.7---- 1.3------------
1994-07-08 17.1 22.6 15.2 12.8 71.5- 5.3 2.7---- 1.3------------
1994-07-07 20.6 26.9 13.6 9.2 48.0- 5.7 1.3---- 0.3------------
1994-07-06 17.7 23.3 10.8 7.2 58.5- 2.0 0.7---- 0.0------------
1994-07-05 18.2 25.6 12.2 8.7 58.3- 3.3 1.7---- 0.0------------
1994-07-04 19.6 25.2 10.1 6.0 59.0- 0.7 1.0---- 0.0------------
1994-07-03 18.5 24.3 10.9 5.9 49.3- 1.0 1.3---- 0.0------------
1994-07-02 16.5 22.2 9.8 5.5 65.5- 0.0 3.0---- 0.0------------
1994-07-01 17.9 22.3 11.1 8.7 62.3- 1.3 4.0---- 0.0------------
1994-06-30 23.5 29.8 17.4 14.0 67.0- 3.3 3.3---- 0.0------------
1994-06-29 23.4 29.1 16.0 13.6 61.8- 0.3 0.7---- 0.0------------
1994-06-28 22.1 26.7 16.6 12.8 67.0- 0.0 3.0---- 0.0------------
1994-06-27 23.7 30.1 18.6 16.2 59.5- 2.0 3.7---- 0.0------------
1994-06-26 21.0 27.9 11.0 7.3 54.0- 0.0 2.7---- 0.0------------
1994-06-25 15.5 21.2 6.3 3.3 63.3- 1.7 2.0---- 0.0------------
1994-06-24 12.6 18.1 7.4 5.3 58.0- 3.0 4.7---- 0.0------------
1994-06-23 17.0 21.8 14.4 14.2 51.3- 2.7 10.0---- 0.0------------
1994-06-22 18.1 24.7 7.2 7.1 66.0- 5.0 4.3---- 0.0------------
1994-06-21 14.8 19.9 6.9 2.7 66.8- 2.7 1.0---- 0.0------------
1994-06-20 15.7 19.4 13.4 11.8 69.0- 4.7 5.0---- 0.0------------
1994-06-19 14.3 18.4 10.8 10.1 84.5- 6.7 3.0---- 0.1------------
1994-06-18 11.8 16.9 4.4 1.9 64.5- 5.0 3.3---- 2.1------------
1994-06-17 10.4 15.1 8.5 5.9 82.8- 7.0 4.7---- 0.0------------
1994-06-16 12.3 16.8 7.4 6.4 67.8- 5.7 5.0---- 4.5------------
320.8 ms

 

Źródłem pochodzenia danych jest Instytut Meteorologii i Gospodarki Wodnej – Państwowy Instytut Badawczy. Dane Instytutu Meteorologii i Gospodarki Wodnej – Państwowego Instytutu Badawczego zostały przetworzone.

Dane źródłowe można odnaleźć na stronie https://dane.imgw.pl